sensor_id;sensor_type;location;lat;lon;timestamp;pressure;altitude;pressure_sealevel;temperature;humidity
68169;BME280;54981;50.206;15.978;2023-07-24T00:00:13;98213.94;;;16.98;100.00
68169;BME280;54981;50.206;15.978;2023-07-24T00:02:43;98220.72;;;16.92;100.00
68169;BME280;54981;50.206;15.978;2023-07-24T00:05:13;98214.31;;;16.74;100.00
68169;BME280;54981;50.206;15.978;2023-07-24T00:07:44;98209.41;;;16.69;100.00
68169;BME280;54981;50.206;15.978;2023-07-24T00:10:14;98214.47;;;16.72;100.00
68169;BME280;54981;50.206;15.978;2023-07-24T00:12:45;98205.72;;;16.70;100.00
68169;BME280;54981;50.206;15.978;2023-07-24T00:15:15;98219.44;;;16.67;100.00
68169;BME280;54981;50.206;15.978;2023-07-24T00:17:45;98211.63;;;16.64;100.00
68169;BME280;54981;50.206;15.978;2023-07-24T00:20:16;98217.00;;;16.64;100.00
68169;BME280;54981;50.206;15.978;2023-07-24T00:22:46;98202.00;;;16.61;100.00
68169;BME280;54981;50.206;15.978;2023-07-24T00:25:16;98205.13;;;16.57;100.00
68169;BME280;54981;50.206;15.978;2023-07-24T00:27:47;98211.50;;;16.56;100.00
68169;BME280;54981;50.206;15.978;2023-07-24T00:30:17;98209.34;;;16.50;100.00
68169;BME280;54981;50.206;15.978;2023-07-24T00:32:48;98203.44;;;16.46;100.00
68169;BME280;54981;50.206;15.978;2023-07-24T00:35:18;98212.44;;;16.35;100.00
68169;BME280;54981;50.206;15.978;2023-07-24T00:37:48;98205.94;;;16.28;100.00
68169;BME280;54981;50.206;15.978;2023-07-24T00:40:19;98208.78;;;16.27;100.00
68169;BME280;54981;50.206;15.978;2023-07-24T00:42:49;98205.25;;;16.26;100.00
68169;BME280;54981;50.206;15.978;2023-07-24T00:45:20;98206.22;;;16.25;100.00
68169;BME280;54981;50.206;15.978;2023-07-24T00:47:51;98217.25;;;16.22;100.00
68169;BME280;54981;50.206;15.978;2023-07-24T00:50:22;98207.50;;;16.21;100.00
68169;BME280;54981;50.206;15.978;2023-07-24T00:52:53;98216.09;;;16.15;100.00
68169;BME280;54981;50.206;15.978;2023-07-24T00:55:24;98203.78;;;16.12;100.00
68169;BME280;54981;50.206;15.978;2023-07-24T00:57:57;98203.91;;;16.11;100.00
68169;BME280;54981;50.206;15.978;2023-07-24T01:00:28;98208.56;;;16.09;100.00
68169;BME280;54981;50.206;15.978;2023-07-24T01:02:59;98209.56;;;16.08;100.00
68169;BME280;54981;50.206;15.978;2023-07-24T01:05:30;98211.53;;;16.06;100.00
68169;BME280;54981;50.206;15.978;2023-07-24T01:08:00;98208.13;;;16.04;100.00
68169;BME280;54981;50.206;15.978;2023-07-24T01:10:31;98206.44;;;16.03;100.00
68169;BME280;54981;50.206;15.978;2023-07-24T01:15:34;98208.41;;;16.01;100.00
68169;BME280;54981;50.206;15.978;2023-07-24T01:18:08;98204.50;;;16.05;100.00
68169;BME280;54981;50.206;15.978;2023-07-24T01:20:43;98204.06;;;16.00;100.00
68169;BME280;54981;50.206;15.978;2023-07-24T01:23:50;98207.28;;;15.93;100.00
68169;BME280;54981;50.206;15.978;2023-07-24T01:26:25;98209.94;;;15.93;100.00
68169;BME280;54981;50.206;15.978;2023-07-24T01:28:56;98210.66;;;15.95;100.00
68169;BME280;54981;50.206;15.978;2023-07-24T01:31:26;98208.09;;;15.94;100.00
68169;BME280;54981;50.206;15.978;2023-07-24T01:33:57;98201.91;;;15.93;100.00
68169;BME280;54981;50.206;15.978;2023-07-24T01:36:27;98204.56;;;15.84;100.00
68169;BME280;54981;50.206;15.978;2023-07-24T01:38:58;98200.19;;;15.83;100.00
68169;BME280;54981;50.206;15.978;2023-07-24T01:41:31;98204.66;;;15.82;100.00
68169;BME280;54981;50.206;15.978;2023-07-24T01:44:01;98206.63;;;15.80;100.00
68169;BME280;54981;50.206;15.978;2023-07-24T01:46:32;98191.81;;;15.76;100.00
68169;BME280;54981;50.206;15.978;2023-07-24T01:49:02;98191.47;;;15.69;100.00
68169;BME280;54981;50.206;15.978;2023-07-24T01:51:32;98192.47;;;15.68;100.00
68169;BME280;54981;50.206;15.978;2023-07-24T01:54:03;98194.06;;;15.50;100.00
68169;BME280;54981;50.206;15.978;2023-07-24T01:56:35;98192.09;;;15.52;100.00
68169;BME280;54981;50.206;15.978;2023-07-24T01:59:06;98191.50;;;15.48;100.00
68169;BME280;54981;50.206;15.978;2023-07-24T02:01:36;98189.53;;;15.50;100.00
68169;BME280;54981;50.206;15.978;2023-07-24T02:04:07;98193.19;;;15.40;100.00
68169;BME280;54981;50.206;15.978;2023-07-24T02:06:37;98190.88;;;15.35;100.00
68169;BME280;54981;50.206;15.978;2023-07-24T02:09:07;98199.06;;;15.33;100.00
68169;BME280;54981;50.206;15.978;2023-07-24T02:11:38;98201.16;;;15.30;100.00
68169;BME280;54981;50.206;15.978;2023-07-24T02:14:08;98198.00;;;15.25;100.00
68169;BME280;54981;50.206;15.978;2023-07-24T02:16:38;98202.91;;;15.20;100.00
68169;BME280;54981;50.206;15.978;2023-07-24T02:19:09;98202.69;;;15.23;100.00
68169;BME280;54981;50.206;15.978;2023-07-24T02:21:39;98206.59;;;15.19;100.00
68169;BME280;54981;50.206;15.978;2023-07-24T02:24:10;98200.25;;;15.20;100.00
68169;BME280;54981;50.206;15.978;2023-07-24T02:26:41;98208.28;;;15.20;100.00
68169;BME280;54981;50.206;15.978;2023-07-24T02:29:11;98213.34;;;15.13;100.00
68169;BME280;54981;50.206;15.978;2023-07-24T02:31:41;98203.75;;;15.10;100.00
68169;BME280;54981;50.206;15.978;2023-07-24T02:34:12;98205.69;;;15.08;100.00
68169;BME280;54981;50.206;15.978;2023-07-24T02:36:43;98215.53;;;15.08;100.00
68169;BME280;54981;50.206;15.978;2023-07-24T02:39:13;98209.88;;;15.01;100.00
68169;BME280;54981;50.206;15.978;2023-07-24T02:41:43;98211.69;;;15.01;100.00
68169;BME280;54981;50.206;15.978;2023-07-24T02:44:14;98210.84;;;15.00;100.00
68169;BME280;54981;50.206;15.978;2023-07-24T02:46:44;98207.44;;;14.98;100.00
68169;BME280;54981;50.206;15.978;2023-07-24T02:49:15;98203.91;;;14.98;100.00
68169;BME280;54981;50.206;15.978;2023-07-24T02:51:45;98204.75;;;14.98;100.00
68169;BME280;54981;50.206;15.978;2023-07-24T02:54:15;98200.50;;;14.96;100.00
68169;BME280;54981;50.206;15.978;2023-07-24T02:56:46;98205.16;;;14.94;100.00
68169;BME280;54981;50.206;15.978;2023-07-24T02:59:16;98205.28;;;14.92;100.00
68169;BME280;54981;50.206;15.978;2023-07-24T03:01:46;98198.22;;;14.91;100.00
68169;BME280;54981;50.206;15.978;2023-07-24T03:04:17;98202.53;;;14.82;100.00
68169;BME280;54981;50.206;15.978;2023-07-24T03:06:48;98186.13;;;14.76;100.00
68169;BME280;54981;50.206;15.978;2023-07-24T03:09:18;98184.44;;;14.75;100.00
68169;BME280;54981;50.206;15.978;2023-07-24T03:11:49;98192.47;;;14.75;100.00
68169;BME280;54981;50.206;15.978;2023-07-24T03:14:19;98195.84;;;14.77;100.00
68169;BME280;54981;50.206;15.978;2023-07-24T03:16:49;98197.56;;;14.78;100.00
68169;BME280;54981;50.206;15.978;2023-07-24T03:19:20;98184.88;;;14.80;100.00
68169;BME280;54981;50.206;15.978;2023-07-24T03:21:50;98182.78;;;14.83;100.00
68169;BME280;54981;50.206;15.978;2023-07-24T03:24:20;98179.66;;;14.78;100.00
68169;BME280;54981;50.206;15.978;2023-07-24T03:26:51;98179.53;;;14.80;100.00
68169;BME280;54981;50.206;15.978;2023-07-24T03:29:21;98182.53;;;14.86;100.00
68169;BME280;54981;50.206;15.978;2023-07-24T03:31:52;98197.97;;;14.94;100.00
68169;BME280;54981;50.206;15.978;2023-07-24T03:34:22;98192.84;;;15.12;100.00
68169;BME280;54981;50.206;15.978;2023-07-24T03:36:52;98194.97;;;15.08;100.00
68169;BME280;54981;50.206;15.978;2023-07-24T03:39:23;98194.50;;;15.03;100.00
68169;BME280;54981;50.206;15.978;2023-07-24T03:41:53;98202.75;;;15.11;100.00
68169;BME280;54981;50.206;15.978;2023-07-24T03:44:23;98211.63;;;15.12;100.00
68169;BME280;54981;50.206;15.978;2023-07-24T03:46:54;98206.72;;;15.17;100.00
68169;BME280;54981;50.206;15.978;2023-07-24T03:49:24;98207.78;;;15.26;100.00
68169;BME280;54981;50.206;15.978;2023-07-24T03:51:54;98211.19;;;15.28;100.00
68169;BME280;54981;50.206;15.978;2023-07-24T03:54:25;98205.03;;;15.37;100.00
68169;BME280;54981;50.206;15.978;2023-07-24T03:56:55;98205.47;;;15.42;100.00
68169;BME280;54981;50.206;15.978;2023-07-24T03:59:25;98222.00;;;15.47;100.00
68169;BME280;54981;50.206;15.978;2023-07-24T04:01:56;98223.91;;;15.57;100.00
68169;BME280;54981;50.206;15.978;2023-07-24T04:04:27;98232.25;;;15.63;100.00
68169;BME280;54981;50.206;15.978;2023-07-24T04:06:57;98240.53;;;15.71;100.00
68169;BME280;54981;50.206;15.978;2023-07-24T04:09:27;98237.44;;;15.76;100.00
68169;BME280;54981;50.206;15.978;2023-07-24T04:11:58;98234.19;;;15.51;100.00
68169;BME280;54981;50.206;15.978;2023-07-24T04:14:28;98225.31;;;15.61;100.00
68169;BME280;54981;50.206;15.978;2023-07-24T04:16:58;98223.44;;;15.72;100.00
68169;BME280;54981;50.206;15.978;2023-07-24T04:19:29;98224.19;;;15.84;100.00
68169;BME280;54981;50.206;15.978;2023-07-24T04:21:59;98223.97;;;15.97;100.00
68169;BME280;54981;50.206;15.978;2023-07-24T04:24:29;98223.00;;;16.08;100.00
68169;BME280;54981;50.206;15.978;2023-07-24T04:27:00;98223.88;;;16.18;100.00
68169;BME280;54981;50.206;15.978;2023-07-24T04:29:30;98218.94;;;16.33;100.00
68169;BME280;54981;50.206;15.978;2023-07-24T04:32:00;98202.28;;;16.49;100.00
68169;BME280;54981;50.206;15.978;2023-07-24T04:34:31;98214.81;;;16.79;100.00
68169;BME280;54981;50.206;15.978;2023-07-24T04:37:03;98209.22;;;17.19;100.00
68169;BME280;54981;50.206;15.978;2023-07-24T04:39:33;98205.28;;;17.71;100.00
68169;BME280;54981;50.206;15.978;2023-07-24T04:42:04;98194.81;;;18.23;100.00
68169;BME280;54981;50.206;15.978;2023-07-24T04:44:35;98199.03;;;18.71;100.00
68169;BME280;54981;50.206;15.978;2023-07-24T04:47:05;98183.50;;;19.01;100.00
68169;BME280;54981;50.206;15.978;2023-07-24T04:49:36;98176.84;;;19.39;100.00
68169;BME280;54981;50.206;15.978;2023-07-24T04:52:06;98169.38;;;19.67;100.00
68169;BME280;54981;50.206;15.978;2023-07-24T04:54:37;98165.72;;;19.68;100.00
68169;BME280;54981;50.206;15.978;2023-07-24T04:57:07;98162.78;;;19.62;100.00
68169;BME280;54981;50.206;15.978;2023-07-24T04:59:37;98151.59;;;19.48;100.00
68169;BME280;54981;50.206;15.978;2023-07-24T05:02:08;98134.84;;;19.45;100.00
68169;BME280;54981;50.206;15.978;2023-07-24T05:04:38;98137.16;;;19.31;100.00
68169;BME280;54981;50.206;15.978;2023-07-24T05:07:08;98124.97;;;19.27;100.00
68169;BME280;54981;50.206;15.978;2023-07-24T05:09:39;98121.91;;;19.22;100.00
68169;BME280;54981;50.206;15.978;2023-07-24T05:12:09;98126.06;;;19.43;100.00
68169;BME280;54981;50.206;15.978;2023-07-24T05:14:39;98126.78;;;19.53;100.00
68169;BME280;54981;50.206;15.978;2023-07-24T05:17:10;98130.22;;;19.63;100.00
68169;BME280;54981;50.206;15.978;2023-07-24T05:19:40;98151.97;;;19.53;100.00
68169;BME280;54981;50.206;15.978;2023-07-24T05:22:10;98157.53;;;19.60;100.00
68169;BME280;54981;50.206;15.978;2023-07-24T05:24:41;98144.34;;;19.75;100.00
68169;BME280;54981;50.206;15.978;2023-07-24T05:27:11;98142.53;;;19.92;100.00
68169;BME280;54981;50.206;15.978;2023-07-24T05:29:42;98142.91;;;19.97;100.00
68169;BME280;54981;50.206;15.978;2023-07-24T05:32:13;98132.97;;;20.14;100.00
68169;BME280;54981;50.206;15.978;2023-07-24T05:34:43;98129.78;;;20.18;100.00
68169;BME280;54981;50.206;15.978;2023-07-24T05:37:14;98131.81;;;20.25;100.00
68169;BME280;54981;50.206;15.978;2023-07-24T05:39:44;98132.16;;;20.30;100.00
68169;BME280;54981;50.206;15.978;2023-07-24T05:42:14;98128.13;;;20.50;100.00
68169;BME280;54981;50.206;15.978;2023-07-24T05:44:45;98126.81;;;20.62;100.00
68169;BME280;54981;50.206;15.978;2023-07-24T05:47:15;98126.16;;;20.69;100.00
68169;BME280;54981;50.206;15.978;2023-07-24T05:49:45;98123.13;;;20.88;100.00
68169;BME280;54981;50.206;15.978;2023-07-24T05:52:16;98110.22;;;21.06;100.00
68169;BME280;54981;50.206;15.978;2023-07-24T05:54:46;98091.75;;;21.26;100.00
68169;BME280;54981;50.206;15.978;2023-07-24T05:57:16;98076.66;;;21.48;100.00
68169;BME280;54981;50.206;15.978;2023-07-24T05:59:47;98064.03;;;21.72;100.00
68169;BME280;54981;50.206;15.978;2023-07-24T06:02:17;98067.59;;;21.96;100.00
68169;BME280;54981;50.206;15.978;2023-07-24T06:04:48;98059.47;;;21.96;100.00
68169;BME280;54981;50.206;15.978;2023-07-24T06:07:18;98038.75;;;22.03;100.00
68169;BME280;54981;50.206;15.978;2023-07-24T06:09:49;98026.16;;;22.10;100.00
68169;BME280;54981;50.206;15.978;2023-07-24T06:12:19;98057.78;;;21.95;100.00
68169;BME280;54981;50.206;15.978;2023-07-24T06:14:49;98072.72;;;21.90;100.00
68169;BME280;54981;50.206;15.978;2023-07-24T06:17:20;98078.06;;;22.07;100.00
68169;BME280;54981;50.206;15.978;2023-07-24T06:19:50;98093.25;;;22.16;100.00
68169;BME280;54981;50.206;15.978;2023-07-24T06:22:21;98088.47;;;22.26;100.00
68169;BME280;54981;50.206;15.978;2023-07-24T06:24:51;98073.03;;;22.50;100.00
68169;BME280;54981;50.206;15.978;2023-07-24T06:27:21;98068.22;;;22.75;100.00
68169;BME280;54981;50.206;15.978;2023-07-24T06:29:52;98085.69;;;22.95;100.00
68169;BME280;54981;50.206;15.978;2023-07-24T06:32:22;98084.47;;;23.21;100.00
68169;BME280;54981;50.206;15.978;2023-07-24T06:34:52;98082.59;;;23.36;100.00
68169;BME280;54981;50.206;15.978;2023-07-24T06:37:23;98076.38;;;23.72;100.00
68169;BME280;54981;50.206;15.978;2023-07-24T06:39:53;98066.97;;;24.05;100.00
68169;BME280;54981;50.206;15.978;2023-07-24T06:42:23;98064.13;;;24.49;100.00
68169;BME280;54981;50.206;15.978;2023-07-24T06:44:54;98062.72;;;24.81;100.00
68169;BME280;54981;50.206;15.978;2023-07-24T06:47:24;98075.88;;;25.06;100.00
68169;BME280;54981;50.206;15.978;2023-07-24T06:49:55;98067.22;;;25.17;100.00
68169;BME280;54981;50.206;15.978;2023-07-24T06:52:27;98067.78;;;25.41;100.00
68169;BME280;54981;50.206;15.978;2023-07-24T06:54:58;98068.06;;;25.53;100.00
68169;BME280;54981;50.206;15.978;2023-07-24T06:57:28;98065.38;;;25.66;100.00
68169;BME280;54981;50.206;15.978;2023-07-24T06:59:58;98060.53;;;25.96;100.00
68169;BME280;54981;50.206;15.978;2023-07-24T07:02:32;98057.00;;;26.16;97.38
68169;BME280;54981;50.206;15.978;2023-07-24T07:05:02;98057.59;;;26.04;98.79
68169;BME280;54981;50.206;15.978;2023-07-24T07:07:33;98057.41;;;26.06;97.45
68169;BME280;54981;50.206;15.978;2023-07-24T07:10:03;98057.38;;;25.99;100.00
68169;BME280;54981;50.206;15.978;2023-07-24T07:12:35;98051.34;;;26.17;100.00
68169;BME280;54981;50.206;15.978;2023-07-24T07:15:06;98053.69;;;26.40;96.65
68169;BME280;54981;50.206;15.978;2023-07-24T07:17:36;98049.50;;;26.44;95.57
68169;BME280;54981;50.206;15.978;2023-07-24T07:20:07;98044.31;;;26.56;97.68
68169;BME280;54981;50.206;15.978;2023-07-24T07:22:37;98041.16;;;26.66;99.71
68169;BME280;54981;50.206;15.978;2023-07-24T07:25:08;98046.81;;;26.91;95.52
68169;BME280;54981;50.206;15.978;2023-07-24T07:27:39;98056.88;;;27.10;92.28
68169;BME280;54981;50.206;15.978;2023-07-24T07:30:09;98043.66;;;27.07;91.73
68169;BME280;54981;50.206;15.978;2023-07-24T07:32:40;98047.00;;;27.23;87.73
68169;BME280;54981;50.206;15.978;2023-07-24T07:35:11;98048.66;;;27.37;86.14
68169;BME280;54981;50.206;15.978;2023-07-24T07:37:41;98043.63;;;27.40;87.97
68169;BME280;54981;50.206;15.978;2023-07-24T07:40:12;98056.47;;;27.07;87.12
68169;BME280;54981;50.206;15.978;2023-07-24T07:42:42;98054.78;;;27.06;78.52
68169;BME280;54981;50.206;15.978;2023-07-24T07:45:12;98064.03;;;26.98;81.17
68169;BME280;54981;50.206;15.978;2023-07-24T07:47:43;98056.50;;;26.87;81.51
68169;BME280;54981;50.206;15.978;2023-07-24T07:50:13;98062.16;;;26.78;87.51
68169;BME280;54981;50.206;15.978;2023-07-24T07:52:43;98064.88;;;26.59;84.39
68169;BME280;54981;50.206;15.978;2023-07-24T07:55:14;98063.22;;;26.71;83.67
68169;BME280;54981;50.206;15.978;2023-07-24T07:57:44;98060.25;;;27.06;84.99
68169;BME280;54981;50.206;15.978;2023-07-24T08:00:15;98056.03;;;27.03;81.61
68169;BME280;54981;50.206;15.978;2023-07-24T08:02:45;98059.00;;;27.02;81.28
68169;BME280;54981;50.206;15.978;2023-07-24T08:05:16;98056.06;;;26.90;87.62
68169;BME280;54981;50.206;15.978;2023-07-24T08:07:46;98059.84;;;27.09;84.34
68169;BME280;54981;50.206;15.978;2023-07-24T08:10:17;98062.56;;;27.42;77.47
68169;BME280;54981;50.206;15.978;2023-07-24T08:12:48;98052.69;;;27.14;81.04
68169;BME280;54981;50.206;15.978;2023-07-24T08:15:19;98056.06;;;26.96;81.30
68169;BME280;54981;50.206;15.978;2023-07-24T08:17:49;98049.69;;;26.23;83.59
68169;BME280;54981;50.206;15.978;2023-07-24T08:20:19;98041.97;;;25.85;92.13
68169;BME280;54981;50.206;15.978;2023-07-24T08:22:50;98037.19;;;25.87;92.67
68169;BME280;54981;50.206;15.978;2023-07-24T08:25:20;98040.84;;;26.14;91.60
68169;BME280;54981;50.206;15.978;2023-07-24T08:27:50;98034.75;;;26.19;90.34
68169;BME280;54981;50.206;15.978;2023-07-24T08:30:21;98038.22;;;26.54;90.05
68169;BME280;54981;50.206;15.978;2023-07-24T08:32:51;98038.81;;;27.03;85.14
68169;BME280;54981;50.206;15.978;2023-07-24T08:35:23;98036.72;;;26.71;84.22
68169;BME280;54981;50.206;15.978;2023-07-24T08:37:53;98028.94;;;26.88;84.76
68169;BME280;54981;50.206;15.978;2023-07-24T08:40:24;98023.50;;;26.95;86.47
68169;BME280;54981;50.206;15.978;2023-07-24T08:42:54;98018.63;;;27.17;81.97
68169;BME280;54981;50.206;15.978;2023-07-24T08:45:27;98016.53;;;27.19;79.25
68169;BME280;54981;50.206;15.978;2023-07-24T08:47:59;98017.91;;;27.55;77.12
68169;BME280;54981;50.206;15.978;2023-07-24T08:50:30;98003.25;;;27.43;78.01
68169;BME280;54981;50.206;15.978;2023-07-24T08:53:01;98004.63;;;27.58;78.34
68169;BME280;54981;50.206;15.978;2023-07-24T08:55:32;98005.22;;;27.74;81.68
68169;BME280;54981;50.206;15.978;2023-07-24T08:58:02;97995.50;;;28.16;75.28
68169;BME280;54981;50.206;15.978;2023-07-24T09:00:35;98000.16;;;28.16;79.43
68169;BME280;54981;50.206;15.978;2023-07-24T09:03:06;97984.34;;;28.50;67.87
68169;BME280;54981;50.206;15.978;2023-07-24T09:05:36;97983.13;;;28.71;68.54
68169;BME280;54981;50.206;15.978;2023-07-24T09:08:07;97976.09;;;29.25;64.84
68169;BME280;54981;50.206;15.978;2023-07-24T09:10:37;97977.81;;;29.19;64.13
68169;BME280;54981;50.206;15.978;2023-07-24T09:13:08;97976.53;;;29.22;64.16
68169;BME280;54981;50.206;15.978;2023-07-24T09:15:42;97963.22;;;29.25;62.05
68169;BME280;54981;50.206;15.978;2023-07-24T09:18:13;97964.78;;;29.15;64.90
68169;BME280;54981;50.206;15.978;2023-07-24T09:20:44;97964.94;;;29.57;62.23
68169;BME280;54981;50.206;15.978;2023-07-24T09:23:15;97953.66;;;29.46;63.85
68169;BME280;54981;50.206;15.978;2023-07-24T09:25:46;97948.66;;;29.92;61.20
68169;BME280;54981;50.206;15.978;2023-07-24T09:28:17;97953.00;;;30.00;64.16
68169;BME280;54981;50.206;15.978;2023-07-24T09:30:57;97947.31;;;30.25;54.46
68169;BME280;54981;50.206;15.978;2023-07-24T09:33:38;97936.75;;;30.28;56.96
68169;BME280;54981;50.206;15.978;2023-07-24T09:36:09;97930.28;;;30.34;58.35
68169;BME280;54981;50.206;15.978;2023-07-24T09:38:41;97922.78;;;30.00;59.00
68169;BME280;54981;50.206;15.978;2023-07-24T09:41:11;97921.97;;;30.65;53.25
68169;BME280;54981;50.206;15.978;2023-07-24T09:43:43;97925.41;;;30.95;54.26
68169;BME280;54981;50.206;15.978;2023-07-24T09:46:15;97921.81;;;31.18;53.79
68169;BME280;54981;50.206;15.978;2023-07-24T09:48:45;97917.84;;;31.26;50.67
68169;BME280;54981;50.206;15.978;2023-07-24T09:51:16;97926.72;;;30.46;50.91
68169;BME280;54981;50.206;15.978;2023-07-24T09:56:51;97917.06;;;30.67;56.43
68169;BME280;54981;50.206;15.978;2023-07-24T09:59:23;97913.94;;;30.63;52.25
68169;BME280;54981;50.206;15.978;2023-07-24T10:01:54;97908.81;;;30.55;53.25
68169;BME280;54981;50.206;15.978;2023-07-24T10:04:24;97902.00;;;30.34;53.92
68169;BME280;54981;50.206;15.978;2023-07-24T10:06:55;97898.25;;;30.17;58.82
68169;BME280;54981;50.206;15.978;2023-07-24T10:09:26;97893.41;;;30.66;53.70
68169;BME280;54981;50.206;15.978;2023-07-24T10:11:57;97892.34;;;30.55;52.52
68169;BME280;54981;50.206;15.978;2023-07-24T10:14:28;97882.06;;;30.62;54.97
68169;BME280;54981;50.206;15.978;2023-07-24T10:16:59;97886.97;;;30.60;53.30
68169;BME280;54981;50.206;15.978;2023-07-24T10:19:42;97880.25;;;30.68;53.30
68169;BME280;54981;50.206;15.978;2023-07-24T10:22:20;97881.19;;;30.62;55.39
68169;BME280;54981;50.206;15.978;2023-07-24T10:24:50;97876.03;;;31.53;52.06
68169;BME280;54981;50.206;15.978;2023-07-24T10:27:24;97871.00;;;32.58;47.35
68169;BME280;54981;50.206;15.978;2023-07-24T10:30:01;97860.47;;;32.94;45.34
68169;BME280;54981;50.206;15.978;2023-07-24T10:32:33;97856.41;;;33.18;44.01
68169;BME280;54981;50.206;15.978;2023-07-24T10:35:07;97858.38;;;33.01;45.86
68169;BME280;54981;50.206;15.978;2023-07-24T10:37:38;97858.38;;;33.01;46.90
68169;BME280;54981;50.206;15.978;2023-07-24T10:40:19;97848.63;;;33.59;nan
68169;BME280;54981;50.206;15.978;2023-07-24T10:45:41;97843.50;;;33.46;nan
68169;BME280;54981;50.206;15.978;2023-07-24T10:48:12;97839.84;;;33.67;nan
68169;BME280;54981;50.206;15.978;2023-07-24T10:50:44;97839.47;;;33.86;nan
68169;BME280;54981;50.206;15.978;2023-07-24T10:53:22;97826.84;;;33.63;nan
68169;BME280;54981;50.206;15.978;2023-07-24T10:55:53;97829.22;;;33.81;nan
68169;BME280;54981;50.206;15.978;2023-07-24T10:58:25;97820.44;;;34.17;nan
68169;BME280;54981;50.206;15.978;2023-07-24T11:00:56;97814.97;;;34.27;nan
68169;BME280;54981;50.206;15.978;2023-07-24T11:03:27;97816.72;;;34.38;nan
68169;BME280;54981;50.206;15.978;2023-07-24T11:05:58;97818.66;;;34.38;nan
68169;BME280;54981;50.206;15.978;2023-07-24T11:08:29;97806.28;;;33.81;nan
68169;BME280;54981;50.206;15.978;2023-07-24T11:11:01;97808.69;;;33.18;nan
68169;BME280;54981;50.206;15.978;2023-07-24T11:13:33;97800.44;;;33.01;nan
68169;BME280;54981;50.206;15.978;2023-07-24T11:16:06;97799.50;;;33.12;nan
68169;BME280;54981;50.206;15.978;2023-07-24T11:18:46;97789.03;;;32.70;nan
68169;BME280;54981;50.206;15.978;2023-07-24T11:21:17;97784.97;;;33.00;nan
68169;BME280;54981;50.206;15.978;2023-07-24T11:23:55;97783.00;;;32.34;nan
68169;BME280;54981;50.206;15.978;2023-07-24T11:26:26;97776.09;;;32.15;nan
68169;BME280;54981;50.206;15.978;2023-07-24T11:28:57;97776.97;;;32.54;nan
68169;BME280;54981;50.206;15.978;2023-07-24T11:31:36;97770.38;;;32.55;nan
68169;BME280;54981;50.206;15.978;2023-07-24T11:34:07;97776.34;;;32.13;nan
68169;BME280;54981;50.206;15.978;2023-07-24T11:36:38;97759.44;;;32.04;nan
68169;BME280;54981;50.206;15.978;2023-07-24T11:39:08;97765.00;;;31.76;nan
68169;BME280;54981;50.206;15.978;2023-07-24T11:41:39;97755.63;;;31.43;nan
68169;BME280;54981;50.206;15.978;2023-07-24T11:44:09;97760.81;;;31.90;nan
68169;BME280;54981;50.206;15.978;2023-07-24T11:46:40;97746.72;;;32.03;nan
68169;BME280;54981;50.206;15.978;2023-07-24T11:49:14;97749.88;;;32.29;nan
68169;BME280;54981;50.206;15.978;2023-07-24T11:51:44;97746.59;;;32.32;nan
68169;BME280;54981;50.206;15.978;2023-07-24T11:54:15;97742.09;;;32.87;nan
68169;BME280;54981;50.206;15.978;2023-07-24T11:56:45;97752.53;;;33.07;nan
68169;BME280;54981;50.206;15.978;2023-07-24T11:59:15;97741.00;;;33.37;nan
68169;BME280;54981;50.206;15.978;2023-07-24T12:01:47;97730.03;;;32.93;nan
68169;BME280;54981;50.206;15.978;2023-07-24T12:04:20;97717.13;;;32.99;nan
68169;BME280;54981;50.206;15.978;2023-07-24T12:06:51;97707.41;;;33.45;nan
68169;BME280;54981;50.206;15.978;2023-07-24T12:09:21;97705.16;;;33.42;nan
68169;BME280;54981;50.206;15.978;2023-07-24T12:11:52;97701.50;;;33.64;nan
68169;BME280;54981;50.206;15.978;2023-07-24T12:14:22;97689.78;;;33.51;nan
68169;BME280;54981;50.206;15.978;2023-07-24T12:17:02;97670.97;;;33.76;nan
68169;BME280;54981;50.206;15.978;2023-07-24T12:19:33;97661.09;;;34.32;nan
68169;BME280;54981;50.206;15.978;2023-07-24T12:22:03;97656.59;;;33.73;nan
68169;BME280;54981;50.206;15.978;2023-07-24T12:24:34;97667.44;;;34.28;nan
68169;BME280;54981;50.206;15.978;2023-07-24T12:27:05;97658.34;;;34.32;nan
68169;BME280;54981;50.206;15.978;2023-07-24T12:29:35;97662.63;;;34.13;nan
68169;BME280;54981;50.206;15.978;2023-07-24T12:32:06;97665.63;;;33.31;nan
68169;BME280;54981;50.206;15.978;2023-07-24T12:34:36;97660.03;;;33.26;nan
68169;BME280;54981;50.206;15.978;2023-07-24T12:37:06;97659.50;;;33.24;nan
68169;BME280;54981;50.206;15.978;2023-07-24T12:39:37;97661.81;;;33.05;nan
68169;BME280;54981;50.206;15.978;2023-07-24T12:42:07;97660.63;;;32.74;nan
68169;BME280;54981;50.206;15.978;2023-07-24T12:44:37;97651.16;;;32.92;nan
68169;BME280;54981;50.206;15.978;2023-07-24T12:47:12;97657.31;;;32.28;nan
68169;BME280;54981;50.206;15.978;2023-07-24T12:49:43;97657.22;;;31.84;nan
68169;BME280;54981;50.206;15.978;2023-07-24T12:52:13;97659.84;;;31.40;nan
68169;BME280;54981;50.206;15.978;2023-07-24T12:54:43;97657.09;;;31.40;nan
68169;BME280;54981;50.206;15.978;2023-07-24T12:57:14;97660.53;;;31.86;nan
68169;BME280;54981;50.206;15.978;2023-07-24T12:59:44;97668.50;;;31.99;nan
68169;BME280;54981;50.206;15.978;2023-07-24T13:02:15;97680.78;;;32.53;nan
68169;BME280;54981;50.206;15.978;2023-07-24T13:04:45;97684.09;;;32.77;nan
68169;BME280;54981;50.206;15.978;2023-07-24T13:07:15;97685.28;;;32.86;nan
68169;BME280;54981;50.206;15.978;2023-07-24T13:09:46;97691.53;;;32.15;nan
68169;BME280;54981;50.206;15.978;2023-07-24T13:12:16;97683.41;;;31.87;nan
68169;BME280;54981;50.206;15.978;2023-07-24T13:14:46;97683.31;;;31.98;nan